Time;durP1;ratioP1;P1;durP2;ratioP2;P2;SDS_P1;SDS_P2;PMS_P1;PMS_P2;Temp;Humidity;BMP_temperature;BMP_pressure;BME280_temperature;BME280_humidity;BME280_pressure;Samples;Min_cycle;Max_cycle;Signal;HPM_P1;HPM_P2
2022/01/09 00:01:44;;;;;;;9.80;8.73;;;;;;;4.67;100.00;98608.72;6474324;23;20063;-77
2022/01/09 00:04:15;;;;;;;15.60;12.03;;;;;;;4.69;100.00;98614.69;6473425;23;20079;-78
2022/01/09 00:06:47;;;;;;;14.57;12.63;;;;;;;4.77;100.00;98640.31;6475032;23;20077;-78
2022/01/09 00:09:18;;;;;;;19.83;14.93;;;;;;;4.81;100.00;98647.09;6474423;23;20012;-79
2022/01/09 00:11:50;;;;;;;16.00;13.33;;;;;;;4.84;100.00;98652.19;6474707;23;20004;-79
2022/01/09 00:14:24;;;;;;;14.27;11.03;;;;;;;4.82;100.00;98673.78;6474730;23;20005;-78
2022/01/09 00:17:06;;;;;;;;;;;;;;;;;;;;;
2022/01/09 00:53:03;;;;;;;35.10;7.93;;;;;;;4.48;100.00;98819.84;6317888;23;20022;-81
2022/01/09 01:02:33;;;;;;;42.05;9.20;;;;;;;4.33;100.00;98826.16;6086472;24;20528;-81
2022/01/09 01:05:29;;;;;;;47.20;10.23;;;;;;;4.30;100.00;98843.41;6065290;24;20391;-78
2022/01/09 01:11:38;;;;;;;41.45;9.30;;;;;;;4.31;100.00;98848.53;6088588;24;20014;-77
2022/01/09 01:14:55;;;;;;;39.33;7.70;;;;;;;4.33;100.00;98875.19;6088935;24;20022;-80
2022/01/09 01:17:45;;;;;;;48.20;8.50;;;;;;;4.29;100.00;98894.16;6087580;24;20349;-80
2022/01/09 01:20:32;;;;;;;30.35;6.20;;;;;;;4.30;100.00;98882.97;6087624;24;20015;-82
2022/01/09 01:23:10;;;;;;;31.40;6.78;;;;;;;4.32;100.00;98883.78;6087756;24;20090;-82
2022/01/09 01:26:01;;;;;;;;;;;;;;;;;;;;;
2022/01/09 01:29:11;;;;;;;37.22;9.25;;;;;;;4.32;100.00;98916.47;6144463;24;20014;-84
2022/01/09 01:31:48;;;;;;;31.05;7.03;;;;;;;4.27;100.00;98923.44;6077358;24;20009;-82
2022/01/09 01:37:42;;;;;;;38.45;8.35;;;;;;;4.27;100.00;98910.56;6203647;24;20086;-78
2022/01/09 01:44:09;;;;;;;39.17;7.97;;;;;;;4.23;100.00;98937.25;6202414;24;20012;-77
2022/01/09 01:46:41;;;;;;;44.20;9.43;;;;;;;4.32;100.00;98948.28;6173313;24;20425;-78
2022/01/09 01:49:13;;;;;;;36.70;9.52;;;;;;;4.36;100.00;98955.09;6172750;24;20013;-79
2022/01/09 01:54:58;;;;;;;35.97;9.07;;;;;;;4.47;100.00;98964.38;6117463;24;20032;-82
2022/01/09 01:58:20;;;;;;;37.90;9.13;;;;;;;4.49;100.00;98984.13;6118350;24;20014;-80
2022/01/09 02:01:19;;;;;;;46.97;9.25;;;;;;;4.41;100.00;98996.25;6089662;24;20098;-79
2022/01/09 02:04:00;;;;;;;42.50;8.80;;;;;;;4.31;100.00;98985.25;6087584;24;20019;-80
2022/01/09 02:07:08;;;;;;;49.05;9.88;;;;;;;4.36;100.00;98992.91;6135994;24;20013;-79
2022/01/09 02:10:23;;;;;;;50.92;9.73;;;;;;;4.34;100.00;99011.00;6143768;24;20017;-79
2022/01/09 02:12:58;;;;;;;43.53;10.57;;;;;;;4.40;100.00;99022.97;6111258;24;20013;-81
2022/01/09 02:15:42;;;;;;;47.17;10.82;;;;;;;4.45;100.00;99021.16;6115177;24;20361;-79
2022/01/09 02:18:16;;;;;;;56.53;11.90;;;;;;;4.50;100.00;99045.16;6115206;24;20024;-80
2022/01/09 02:20:55;;;;;;;51.38;11.30;;;;;;;4.56;100.00;99032.16;6115600;24;20059;-81
2022/01/09 02:23:37;;;;;;;51.05;9.30;;;;;;;4.57;100.00;99040.72;6116111;24;20055;-80
2022/01/09 02:26:15;;;;;;;44.40;8.60;;;;;;;4.59;100.00;99049.31;6115943;24;20014;-79
2022/01/09 02:28:55;;;;;;;47.80;10.35;;;;;;;4.57;100.00;99045.91;6116121;24;20014;-79
2022/01/09 02:31:26;;;;;;;50.80;13.70;;;;;;;4.60;100.00;99050.16;6157283;24;20093;-80
2022/01/09 02:33:58;;;;;;;46.37;9.50;;;;;;;4.56;100.00;99050.22;6201748;24;20013;-78
2022/01/09 02:36:30;;;;;;;43.40;9.98;;;;;;;4.59;100.00;99046.75;6212529;23;20024;-79
2022/01/09 02:39:02;;;;;;;47.50;9.47;;;;;;;4.65;100.00;99066.41;6289009;23;20014;-80
2022/01/09 02:41:33;;;;;;;43.03;10.80;;;;;;;4.55;100.00;99063.97;6288844;23;20008;-80
2022/01/09 02:44:11;;;;;;;44.13;10.17;;;;;;;4.59;100.00;99082.88;6289381;23;20248;-80
2022/01/09 02:49:20;;;;;;;37.97;11.30;;;;;;;4.54;100.00;99090.69;6487446;23;20016;-83
2022/01/09 02:51:52;;;;;;;47.88;10.60;;;;;;;4.67;100.00;99093.06;6477141;23;20004;-81
2022/01/09 02:57:14;;;;;;;39.38;9.38;;;;;;;4.60;100.00;99107.78;6480477;23;20342;-80
2022/01/09 02:59:45;;;;;;;40.40;9.30;;;;;;;4.61;100.00;99116.41;6481789;23;20001;-81
2022/01/09 03:02:29;;;;;;;40.70;7.70;;;;;;;4.60;100.00;99131.00;6479137;23;20001;-80
2022/01/09 03:05:00;;;;;;;36.67;7.75;;;;;;;4.59;100.00;99125.88;6477977;23;20000;-77
2022/01/09 03:07:32;;;;;;;38.40;6.63;;;;;;;4.61;99.58;99124.13;6479759;23;20331;-78
2022/01/09 03:10:15;;;;;;;36.97;7.07;;;;;;;4.71;98.23;99146.34;6478335;23;20026;-79
2022/01/09 03:12:47;;;;;;;;;;;;;;;4.66;98.03;99159.31;6477441;23;20011;-78
2022/01/09 03:15:27;;;;;;;26.95;7.35;;;;;;;4.65;97.42;99152.44;6450585;23;19931;-80
2022/01/09 03:17:59;;;;;;;35.45;7.65;;;;;;;4.59;98.58;99177.47;6476753;23;20009;-79
2022/01/09 03:20:31;;;;;;;31.85;7.78;;;;;;;4.53;98.08;99170.69;6475921;23;20001;-80
2022/01/09 03:23:12;;;;;;;38.90;6.87;;;;;;;4.67;95.88;99186.84;6480259;23;20035;-79
2022/01/09 03:26:10;;;;;;;24.13;7.05;;;;;;;4.61;95.34;99186.09;6475134;23;20074;-80
2022/01/09 03:28:47;;;;;;;28.67;5.78;;;;;;;4.49;95.89;99175.06;6475329;23;20004;-79
2022/01/09 03:31:26;;;;;;;27.92;5.75;;;;;;;4.57;94.81;99205.88;6449234;23;20001;-79
2022/01/09 03:34:09;;;;;;;28.92;6.88;;;;;;;4.50;94.66;99199.97;6475154;23;20194;-79
2022/01/09 03:36:58;;;;;;;27.73;6.10;;;;;;;4.53;94.39;99214.56;6474989;23;20007;-79
2022/01/09 03:39:29;;;;;;;20.90;6.15;;;;;;;4.59;92.66;99206.75;6476777;23;20005;-80
2022/01/09 03:42:04;;;;;;;34.63;6.13;;;;;;;4.50;94.07;99220.59;6476157;23;20007;-78
2022/01/09 03:44:51;;;;;;;24.02;6.63;;;;;;;4.59;92.51;99237.72;6477200;23;20016;-80
2022/01/09 03:47:30;;;;;;;25.95;5.78;;;;;;;4.49;93.98;99242.16;6475037;23;20023;-80
2022/01/09 03:50:18;;;;;;;24.67;6.47;;;;;;;4.48;93.02;99244.75;6478542;23;20001;-80
2022/01/09 03:52:53;;;;;;;33.67;8.05;;;;;;;4.51;92.94;99253.28;6382047;23;20360;-80
2022/01/09 03:55:26;;;;;;;26.83;6.03;;;;;;;4.53;93.20;99251.53;6380408;23;20088;-81
2022/01/09 03:58:26;;;;;;;23.20;6.18;;;;;;;4.51;92.65;99262.78;6381770;23;20017;-80
2022/01/09 04:01:06;;;;;;;36.75;7.50;;;;;;;4.48;93.38;99262.81;6380809;23;20006;-80
2022/01/09 04:03:38;;;;;;;25.45;6.10;;;;;;;4.38;93.06;99265.50;6383751;23;20069;-80
2022/01/09 04:06:09;;;;;;;27.87;6.73;;;;;;;4.35;93.26;99273.25;6357912;23;20022;-80
2022/01/09 04:08:40;;;;;;;27.63;6.30;;;;;;;4.38;92.47;99282.72;6381520;23;20061;-80
2022/01/09 04:11:19;;;;;;;29.87;7.43;;;;;;;4.47;91.51;99292.91;6399345;23;19996;-80
2022/01/09 04:13:53;;;;;;;24.85;5.10;;;;;;;4.37;92.26;99302.47;6374966;23;20497;-82
2022/01/09 04:16:36;;;;;;;25.60;5.93;;;;;;;4.26;93.02;99304.31;6398949;23;20006;-83
2022/01/09 04:19:29;;;;;;;27.00;5.28;;;;;;;4.17;93.02;99304.41;6399981;23;20006;-83
2022/01/09 04:22:06;;;;;;;32.47;7.05;;;;;;;4.28;92.54;99320.66;6364128;23;20093;-86
2022/01/09 04:24:38;;;;;;;30.23;5.22;;;;;;;4.05;94.07;99312.28;6449895;23;20083;-84
2022/01/09 04:27:09;;;;;;;22.57;4.97;;;;;;;4.07;93.83;99319.13;6489441;23;20064;-83
2022/01/09 04:38:12;;;;;;;27.13;6.07;;;;;;;4.07;93.30;99357.81;6429417;23;20013;-83
2022/01/09 04:41:47;;;;;;;;;;;;;;;;;;;;;
2022/01/09 05:22:35;;;;;;;23.50;4.43;;;;;;;3.95;92.41;99463.63;6095595;24;20010;-82
2022/01/09 06:05:52;;;;;;;29.27;5.15;;;;;;;3.49;100.00;99536.91;6030615;24;20454;-81
2022/01/09 06:19:49;;;;;;;26.15;6.28;;;;;;;3.53;97.87;99532.63;6061748;24;20015;-81
2022/01/09 06:55:51;;;;;;;;;;;;;;;3.78;95.41;99597.78;6038438;24;20350;-83
2022/01/09 06:58:56;;;;;;;19.33;5.22;;;;;;;3.81;94.78;99610.66;6066126;24;19917;-81
2022/01/09 07:48:43;;;;;;;26.08;7.25;;;;;;;3.31;99.40;99681.22;6124884;24;20017;-82
2022/01/09 07:51:15;;;;;;;18.43;4.57;;;;;;;3.29;99.42;99699.25;6123075;24;20010;-80
2022/01/09 07:53:46;;;;;;;19.20;4.87;;;;;;;3.24;99.64;99706.97;6100820;24;20502;-81
2022/01/09 07:56:18;;;;;;;16.67;3.33;;;;;;;3.26;98.66;99701.81;6124576;24;20318;-81
2022/01/09 07:58:50;;;;;;;23.33;4.63;;;;;;;3.25;98.57;99703.56;6123967;24;20010;-81
2022/01/09 08:01:22;;;;;;;13.10;3.93;;;;;;;3.31;97.76;99712.13;6100980;24;20009;-81
2022/01/09 08:03:53;;;;;;;18.00;4.17;;;;;;;3.36;96.55;99705.25;6122617;24;20441;-81
2022/01/09 08:06:24;;;;;;;13.50;3.27;;;;;;;3.48;95.04;99718.13;6122554;24;20030;-79
2022/01/09 08:08:56;;;;;;;14.00;4.43;;;;;;;3.44;94.74;99729.28;6099775;24;20041;-78
2022/01/09 08:11:27;;;;;;;17.40;4.37;;;;;;;3.42;94.94;99725.88;6237468;24;20343;-80
2022/01/09 08:13:58;;;;;;;17.03;3.50;;;;;;;3.35;95.38;99717.28;6293318;23;20011;-81
2022/01/09 08:16:30;;;;;;;13.77;3.90;;;;;;;3.37;95.29;99732.75;6333599;23;20009;-81
2022/01/09 08:19:01;;;;;;;15.77;3.90;;;;;;;3.36;95.24;99733.59;6411867;23;20121;-81
2022/01/09 08:21:33;;;;;;;12.57;2.80;;;;;;;3.34;96.39;99743.03;6463083;23;20035;-80
2022/01/09 08:24:04;;;;;;;16.70;4.40;;;;;;;3.43;95.96;99746.47;6508875;23;20008;-83
2022/01/09 08:26:36;;;;;;;10.80;3.37;;;;;;;3.45;95.77;99754.19;6496488;23;20017;-80
2022/01/09 08:29:07;;;;;;;18.57;5.13;;;;;;;3.44;95.84;99753.31;6477139;23;20075;-79
2022/01/09 08:31:39;;;;;;;15.43;4.10;;;;;;;3.47;95.63;99755.91;6477062;23;19996;-82
2022/01/09 08:34:10;;;;;;;12.80;4.67;;;;;;;3.50;96.12;99760.22;6450976;23;20009;-79
2022/01/09 08:36:42;;;;;;;15.67;3.70;;;;;;;3.49;96.40;99757.63;6477340;23;20322;-80
2022/01/09 08:39:13;;;;;;;15.60;3.83;;;;;;;3.52;96.00;99763.63;6477607;23;20005;-82
2022/01/09 08:41:45;;;;;;;14.33;3.37;;;;;;;3.58;95.89;99765.38;6476648;23;20001;-80
2022/01/09 08:44:16;;;;;;;16.07;3.83;;;;;;;3.60;96.17;99764.47;6468271;23;20058;-81
2022/01/09 08:46:47;;;;;;;16.47;4.30;;;;;;;3.63;96.25;99766.22;6476498;23;20016;-81
2022/01/09 08:49:19;;;;;;;13.43;3.87;;;;;;;3.60;96.73;99772.22;6450326;23;19996;-82
2022/01/09 08:51:50;;;;;;;18.53;4.80;;;;;;;3.60;97.41;99781.66;6476031;23;20377;-80
2022/01/09 08:54:22;;;;;;;20.73;4.97;;;;;;;3.58;97.65;99773.09;6476324;23;20004;-80
2022/01/09 08:56:53;;;;;;;17.30;4.53;;;;;;;3.52;97.95;99781.66;6476977;23;20004;-81
2022/01/09 08:59:26;;;;;;;22.07;4.53;;;;;;;3.52;97.60;99788.53;6475767;23;20361;-83
2022/01/09 09:01:57;;;;;;;15.40;3.85;;;;;;;3.53;97.31;99790.28;6476990;23;20080;-83
2022/01/09 09:04:28;;;;;;;16.73;5.03;;;;;;;3.64;96.35;99791.97;6476916;23;20039;-83
2022/01/09 09:07:00;;;;;;;25.57;4.77;;;;;;;3.74;95.89;99791.97;6476409;23;20004;-82
2022/01/09 09:09:31;;;;;;;20.30;4.10;;;;;;;3.81;96.91;99804.84;6476263;23;20004;-81
2022/01/09 09:12:03;;;;;;;17.47;3.60;;;;;;;3.97;96.87;99813.41;6477894;23;20009;-81
2022/01/09 09:14:35;;;;;;;21.40;4.07;;;;;;;4.41;97.77;99803.00;6477428;23;20091;-82
2022/01/09 09:17:06;;;;;;;24.13;4.80;;;;;;;4.72;94.75;99808.91;6477269;23;20036;-82
2022/01/09 09:19:38;;;;;;;21.57;4.00;;;;;;;4.84;94.86;99815.72;6478332;23;20001;-81
2022/01/09 09:22:09;;;;;;;16.60;4.50;;;;;;;4.79;92.62;99825.22;6478229;23;20000;-80
2022/01/09 09:24:41;;;;;;;14.07;4.13;;;;;;;4.83;92.46;99829.50;6476971;23;20189;-80
2022/01/09 09:27:13;;;;;;;15.43;3.67;;;;;;;4.66;92.92;99830.44;6477245;23;20079;-83
2022/01/09 09:29:44;;;;;;;17.63;4.90;;;;;;;4.46;93.17;99832.22;6451412;23;20075;-80
2022/01/09 09:32:15;;;;;;;21.17;6.73;;;;;;;4.41;93.93;99826.22;6477192;23;20072;-82
2022/01/09 09:34:47;;;;;;;13.90;3.80;;;;;;;4.44;93.61;99832.22;6476646;23;20080;-81
2022/01/09 09:37:20;;;;;;;18.90;5.53;;;;;;;4.48;92.09;99841.69;6477427;23;20457;-82
2022/01/09 09:39:52;;;;;;;19.33;4.50;;;;;;;4.69;92.74;99840.75;6477829;23;20008;-83
2022/01/09 09:42:23;;;;;;;16.67;4.57;;;;;;;4.85;90.95;99848.44;6449445;23;20008;-80
2022/01/09 09:45:10;;;;;;;;;;;;;;;;;;;;;
2022/01/09 09:47:44;;;;;;;26.33;5.30;;;;;;;5.07;90.68;99849.19;6473374;23;20502;-80
2022/01/09 09:50:19;;;;;;;17.58;4.50;;;;;;;4.83;88.85;99866.53;6477855;23;20011;-80
2022/01/09 09:52:53;;;;;;;15.52;4.82;;;;;;;4.64;91.28;99873.47;6478623;23;20055;-81
2022/01/09 09:55:25;;;;;;;22.23;5.43;;;;;;;4.12;93.46;99874.47;6478936;23;20064;-81
2022/01/09 09:57:57;;;;;;;21.20;5.47;;;;;;;3.89;95.03;99881.34;6480515;23;20016;-81
2022/01/09 10:00:28;;;;;;;14.70;4.43;;;;;;;3.67;95.69;99883.03;6481539;23;20000;-82
2022/01/09 10:03:01;;;;;;;19.37;6.10;;;;;;;3.64;97.17;99878.75;6452678;23;20019;-77
2022/01/09 10:05:34;;;;;;;18.73;5.80;;;;;;;3.65;98.20;99876.19;6480457;23;20080;-80
2022/01/09 10:08:08;;;;;;;20.40;4.32;;;;;;;3.79;98.68;99888.22;6477811;23;20000;-81
2022/01/09 10:10:39;;;;;;;16.60;5.07;;;;;;;3.79;98.50;99881.31;6476473;23;20001;-81
2022/01/09 10:13:19;;;;;;;16.77;4.60;;;;;;;3.80;99.22;99887.34;6478176;23;20060;-80
2022/01/09 10:15:56;;;;;;;26.80;5.72;;;;;;;3.91;98.95;99884.75;6478232;23;20000;-81
2022/01/09 10:18:48;;;;;;;23.92;6.18;;;;;;;4.12;99.65;99886.47;6445378;23;20411;-79
2022/01/09 10:21:24;;;;;;;19.20;4.97;;;;;;;4.23;98.95;99883.88;6444532;23;20004;-82
2022/01/09 10:24:11;;;;;;;19.02;5.03;;;;;;;4.33;98.88;99889.03;6446963;23;20036;-81
2022/01/09 10:26:49;;;;;;;19.80;5.10;;;;;;;4.38;96.73;99891.63;6442842;23;20013;-83
2022/01/09 10:29:20;;;;;;;19.85;6.45;;;;;;;4.47;96.13;99882.97;6444681;23;20084;-82
2022/01/09 10:31:52;;;;;;;15.50;5.07;;;;;;;4.71;96.98;99888.06;6444719;23;20051;-79
2022/01/09 10:34:23;;;;;;;22.50;4.43;;;;;;;4.78;93.67;99888.06;6444334;23;20338;-81
2022/01/09 10:36:54;;;;;;;21.80;5.30;;;;;;;4.94;93.97;99907.78;6444327;23;20039;-80
2022/01/09 10:39:26;;;;;;;18.07;5.43;;;;;;;4.93;91.83;99901.75;6443991;23;20065;-81
2022/01/09 10:42:00;;;;;;;22.57;5.30;;;;;;;5.00;93.17;99901.75;6446415;23;20008;-78
2022/01/09 10:44:37;;;;;;;15.98;5.00;;;;;;;5.11;93.04;99910.31;6447463;23;20383;-79
2022/01/09 10:47:14;;;;;;;20.63;4.63;;;;;;;5.33;91.86;99908.47;6449808;23;20001;-80
2022/01/09 10:49:51;;;;;;;21.60;5.55;;;;;;;5.57;90.37;99916.94;6448303;23;20299;-81
2022/01/09 10:52:27;;;;;;;17.30;4.45;;;;;;;5.69;89.22;99916.88;6446916;23;20001;-79
2022/01/09 10:55:05;;;;;;;15.50;5.30;;;;;;;5.51;88.68;99910.09;6450705;23;20002;-79
2022/01/09 10:57:38;;;;;;;19.30;5.20;;;;;;;5.40;89.17;99911.88;6424806;23;20016;-81
2022/01/09 11:00:14;;;;;;;;;;;;;;;5.70;90.42;99910.84;6450069;23;20008;-80
2022/01/09 11:02:46;;;;;;;21.00;5.80;;;;;;;5.92;87.98;99923.59;6418855;23;19915;-82
2022/01/09 11:05:17;;;;;;;22.43;4.97;;;;;;;6.52;87.79;99921.38;6444912;23;20005;-80
2022/01/09 11:07:50;;;;;;;14.53;4.43;;;;;;;7.16;82.32;99920.66;6443269;23;20057;-82
2022/01/09 11:10:24;;;;;;;15.50;5.22;;;;;;;7.58;79.95;99921.84;6443460;23;20108;-81
2022/01/09 11:12:59;;;;;;;21.65;5.60;;;;;;;7.34;79.38;99925.63;6445361;23;20001;-81
2022/01/09 11:15:40;;;;;;;20.85;5.15;;;;;;;7.07;78.13;99924.25;6445694;23;20072;-82
2022/01/09 11:18:11;;;;;;;17.05;4.60;;;;;;;6.96;79.25;99926.09;6444750;23;20091;-80
2022/01/09 11:20:43;;;;;;;27.67;7.67;;;;;;;6.64;80.39;99942.84;6445736;23;20048;-81
2022/01/09 11:23:16;;;;;;;20.00;5.43;;;;;;;6.86;81.88;99933.09;6444019;23;20088;-81
2022/01/09 11:25:51;;;;;;;22.20;3.97;;;;;;;7.86;77.24;99929.22;6446134;23;20425;-80
2022/01/09 11:28:25;;;;;;;16.98;4.65;;;;;;;7.94;76.38;99952.44;6445037;23;20067;-82
2022/01/09 11:31:15;;;;;;;15.50;4.18;;;;;;;7.59;77.00;99953.81;6445342;23;20474;-80
2022/01/09 11:33:59;;;;;;;14.02;4.57;;;;;;;7.27;77.59;99947.31;6445699;23;20001;-82
2022/01/09 11:36:44;;;;;;;15.35;4.57;;;;;;;7.41;78.39;99950.59;6444260;23;20005;-81
2022/01/09 11:39:20;;;;;;;12.23;3.50;;;;;;;8.29;75.01;99951.88;6443700;23;20005;-80
2022/01/09 11:42:09;;;;;;;20.40;4.55;;;;;;;9.07;73.86;99964.34;6442391;23;20336;-80
2022/01/09 11:44:44;;;;;;;12.13;4.20;;;;;;;8.49;71.35;99956.75;6443268;23;20067;-81
2022/01/09 11:47:17;;;;;;;14.38;4.30;;;;;;;7.99;72.52;99961.00;6443355;23;20005;-79
2022/01/09 11:49:55;;;;;;;15.27;3.97;;;;;;;8.35;72.68;99962.13;6443440;23;20009;-80
2022/01/09 11:52:29;;;;;;;19.15;5.03;;;;;;;9.09;71.46;99958.22;6444536;23;20009;-80
2022/01/09 11:55:05;;;;;;;16.67;3.80;;;;;;;9.19;67.83;99956.28;6443774;23;20005;-81
2022/01/09 11:57:38;;;;;;;13.77;3.92;;;;;;;10.00;67.93;99958.00;6444736;23;20008;-81
2022/01/09 12:00:31;;;;;;;16.58;4.90;;;;;;;9.80;66.61;99968.88;6445047;23;20005;-81
2022/01/09 12:03:21;;;;;;;;;;;;;;;10.28;65.81;99975.56;6445247;23;20016;-80
2022/01/09 12:06:10;;;;;;;18.75;3.97;;;;;;;9.96;65.08;99979.78;6443997;23;19930;-81
2022/01/09 12:09:11;;;;;;;14.05;4.10;;;;;;;9.93;69.15;99977.25;6443875;23;20009;-79
2022/01/09 12:12:11;;;;;;;23.42;4.68;;;;;;;9.18;68.15;99974.56;6318692;23;20019;-79
2022/01/09 12:14:53;;;;;;;18.55;4.20;;;;;;;9.24;68.97;99977.00;6318182;23;20086;-79
2022/01/09 12:17:27;;;;;;;15.48;4.60;;;;;;;8.97;68.62;99974.06;6320473;23;20038;-78
2022/01/09 12:20:14;;;;;;;12.05;4.22;;;;;;;8.71;69.82;99971.94;6321468;23;20006;-79
2022/01/09 12:25:25;;;;;;;16.23;4.23;;;;;;;7.67;72.96;99975.31;6323543;23;20078;-79
2022/01/09 12:28:08;;;;;;;20.48;5.15;;;;;;;7.16;75.63;99982.88;6349998;23;20018;-79
2022/01/09 12:33:14;;;;;;;19.27;5.50;;;;;;;6.14;78.67;100000.22;6352183;23;20086;-80
2022/01/09 12:35:54;;;;;;;19.20;4.47;;;;;;;5.98;79.29;99999.47;6363711;23;20039;-79
2022/01/09 12:38:28;;;;;;;19.45;5.18;;;;;;;5.91;79.62;100007.25;6351417;23;20045;-78
2022/01/09 12:41:08;;;;;;;20.65;4.78;;;;;;;5.78;79.72;100007.34;6347872;23;20086;-78
2022/01/09 12:43:41;;;;;;;18.98;5.13;;;;;;;5.63;79.81;100010.84;6347497;23;20097;-77
2022/01/09 12:46:21;;;;;;;15.32;4.43;;;;;;;5.55;79.79;100002.25;6347123;23;20048;-80
2022/01/09 12:49:08;;;;;;;17.75;4.85;;;;;;;5.53;79.76;100005.75;6426585;23;20012;-77
2022/01/09 12:51:48;;;;;;;17.77;4.13;;;;;;;5.50;79.60;100019.53;6442546;23;20023;-80
2022/01/09 12:54:22;;;;;;;20.70;5.05;;;;;;;5.44;78.73;100010.09;6414592;23;20315;-80
2022/01/09 12:56:53;;;;;;;28.10;4.65;;;;;;;5.45;79.61;100006.63;6441965;23;20001;-79
2022/01/09 12:59:29;;;;;;;21.90;4.40;;;;;;;5.49;80.06;100010.06;6442814;23;20027;-80
2022/01/09 13:02:02;;;;;;;18.73;4.20;;;;;;;5.38;78.87;100017.00;6442351;23;20033;-80
2022/01/09 13:04:34;;;;;;;19.67;5.30;;;;;;;5.43;79.55;100015.25;6440661;23;20132;-80
2022/01/09 13:07:13;;;;;;;16.63;4.30;;;;;;;5.56;77.49;100021.25;6442264;23;20005;-80
2022/01/09 13:09:45;;;;;;;20.23;5.72;;;;;;;5.69;77.79;100033.22;6415906;23;20009;-83
2022/01/09 13:12:19;;;;;;;20.43;4.73;;;;;;;6.79;76.13;100035.94;6442356;23;20016;-81
2022/01/09 13:14:50;;;;;;;19.80;4.80;;;;;;;7.92;69.71;100032.03;6442288;23;20065;-79
2022/01/09 13:17:23;;;;;;;12.30;4.60;;;;;;;8.32;67.49;100042.72;6442235;23;20143;-80
2022/01/09 13:19:54;;;;;;;17.98;3.95;;;;;;;7.88;67.31;100038.16;6415980;23;20005;-80
2022/01/09 13:22:25;;;;;;;17.03;4.23;;;;;;;7.04;69.15;100051.25;6442106;23;20016;-79
2022/01/09 13:25:03;;;;;;;14.87;4.10;;;;;;;6.46;71.77;100053.47;6441983;23;20112;-79
2022/01/09 13:27:35;;;;;;;20.98;4.82;;;;;;;6.10;73.06;100052.88;6442550;23;20032;-78
2022/01/09 13:30:07;;;;;;;18.77;5.57;;;;;;;5.90;74.24;100057.28;6442916;23;20009;-80
2022/01/09 13:32:39;;;;;;;17.65;4.53;;;;;;;5.72;75.29;100058.22;6443182;23;20076;-77
2022/01/09 13:35:11;;;;;;;18.77;4.30;;;;;;;5.42;76.09;100055.72;6417358;23;20031;-80
2022/01/09 13:37:42;;;;;;;21.83;4.97;;;;;;;5.53;77.14;100057.44;6444866;23;20008;-80
2022/01/09 13:40:18;;;;;;;13.83;5.13;;;;;;;5.38;77.79;100058.38;6444190;23;20001;-79
2022/01/09 13:42:49;;;;;;;18.42;4.85;;;;;;;5.83;77.63;100056.44;6447114;23;20008;-79
2022/01/09 13:45:22;;;;;;;20.97;5.10;;;;;;;5.81;77.62;100047.81;6449763;23;20009;-79
2022/01/09 13:47:57;;;;;;;14.82;4.05;;;;;;;5.81;77.51;100043.53;6442598;23;19997;-79
2022/01/09 13:50:33;;;;;;;20.40;5.30;;;;;;;7.19;74.56;100063.19;6442986;23;20076;-80
2022/01/09 13:53:10;;;;;;;20.58;5.00;;;;;;;8.39;69.50;100062.50;6442483;23;20382;-79
2022/01/09 13:55:42;;;;;;;16.17;5.13;;;;;;;8.83;66.45;100054.88;6442525;23;20005;-79
2022/01/09 13:58:17;;;;;;;16.58;4.43;;;;;;;8.58;66.89;100070.91;6442408;23;20003;-80
2022/01/09 14:00:49;;;;;;;15.52;4.13;;;;;;;8.17;67.90;100071.50;6416804;23;20036;-81
2022/01/09 14:03:27;;;;;;;14.47;4.53;;;;;;;8.81;68.97;100081.81;6442572;23;20039;-80
2022/01/09 14:05:59;;;;;;;19.60;5.68;;;;;;;9.56;64.69;100066.53;6415401;23;20507;-79
2022/01/09 14:08:36;;;;;;;24.33;7.47;;;;;;;8.75;67.39;100086.19;6442264;23;19997;-79
2022/01/09 14:11:08;;;;;;;22.13;5.82;;;;;;;8.40;68.41;100087.59;6437393;23;20001;-79
2022/01/09 14:13:40;;;;;;;16.07;4.73;;;;;;;8.80;67.46;100077.47;6441266;23;20358;-80
2022/01/09 14:16:13;;;;;;;19.55;5.22;;;;;;;8.43;67.54;100084.13;6440895;23;20112;-81
2022/01/09 14:18:55;;;;;;;19.58;4.70;;;;;;;7.74;70.66;100093.66;6439820;23;20047;-79
2022/01/09 14:21:27;;;;;;;18.90;4.90;;;;;;;8.89;68.60;100098.13;6441485;23;20431;-79
2022/01/09 14:24:07;;;;;;;17.87;5.97;;;;;;;8.81;63.50;100102.59;6440195;23;20012;-81
2022/01/09 14:26:38;;;;;;;23.10;6.75;;;;;;;8.86;63.77;100095.56;6440845;23;20509;-80
2022/01/09 14:29:10;;;;;;;18.83;6.37;;;;;;;8.48;64.22;100100.47;6441540;23;20001;-79
2022/01/09 14:31:42;;;;;;;19.02;5.20;;;;;;;7.48;66.95;100107.81;6439999;23;20003;-80
2022/01/09 14:34:13;;;;;;;17.33;5.30;;;;;;;7.04;69.70;100108.28;6414755;23;20005;-80
2022/01/09 14:36:47;;;;;;;15.73;5.17;;;;;;;7.09;71.90;100111.66;6441212;23;20342;-81
2022/01/09 14:39:20;;;;;;;19.52;5.05;;;;;;;6.62;71.58;100108.59;6439113;23;20057;-80
2022/01/09 14:41:53;;;;;;;17.45;4.40;;;;;;;6.66;73.11;100109.44;6437764;23;20012;-78
2022/01/09 14:44:25;;;;;;;17.58;4.72;;;;;;;6.24;73.73;100121.81;6412289;23;20013;-79
2022/01/09 14:46:57;;;;;;;16.92;5.90;;;;;;;6.43;73.03;100120.81;6440396;23;20546;-80
2022/01/09 14:49:29;;;;;;;12.90;4.10;;;;;;;6.95;70.92;100140.28;6440747;23;20033;-82
2022/01/09 14:52:02;;;;;;;16.83;6.35;;;;;;;6.84;70.27;100145.56;6441389;23;20029;-81
2022/01/09 14:54:35;;;;;;;13.60;5.10;;;;;;;6.93;69.47;100150.66;6441296;23;20338;-80
2022/01/09 14:57:07;;;;;;;17.85;5.10;;;;;;;6.42;69.93;100139.81;6441436;23;20370;-80
2022/01/09 14:59:38;;;;;;;16.33;4.70;;;;;;;6.01;71.16;100159.84;6415529;23;20005;-81
2022/01/09 15:02:09;;;;;;;14.80;5.67;;;;;;;5.61;73.08;100156.53;6445505;23;20008;-81
2022/01/09 15:04:41;;;;;;;20.57;6.13;;;;;;;5.57;73.25;100165.13;6445842;23;20013;-81
2022/01/09 15:07:12;;;;;;;17.77;5.73;;;;;;;5.41;74.35;100164.31;6443257;23;20457;-80
2022/01/09 15:09:46;;;;;;;15.37;4.53;;;;;;;5.35;74.78;100169.50;6415236;23;20005;-80
2022/01/09 15:12:18;;;;;;;18.00;5.63;;;;;;;5.33;75.13;100184.13;6441877;23;20324;-82
2022/01/09 15:14:53;;;;;;;15.27;5.03;;;;;;;5.44;76.25;100179.81;6441342;23;20019;-80
2022/01/09 15:17:24;;;;;;;13.40;4.65;;;;;;;5.30;75.85;100175.53;6442289;23;20059;-80
2022/01/09 15:19:56;;;;;;;19.30;4.43;;;;;;;5.31;76.56;100189.28;6442167;23;20304;-79
2022/01/09 15:22:31;;;;;;;16.50;4.40;;;;;;;5.25;77.13;100194.50;6442220;23;20005;-79
2022/01/09 15:25:03;;;;;;;16.10;4.22;;;;;;;5.10;77.76;100191.06;6440692;23;20009;-81
2022/01/09 15:27:35;;;;;;;15.30;6.10;;;;;;;4.98;78.80;100192.78;6444261;23;20009;-81
2022/01/09 15:30:07;;;;;;;17.90;6.80;;;;;;;4.99;79.78;100192.78;6444212;23;20088;-80
2022/01/09 15:32:38;;;;;;;17.02;5.88;;;;;;;4.80;80.73;100186.72;6442805;23;20401;-79
2022/01/09 15:35:10;;;;;;;15.70;4.80;;;;;;;4.66;80.86;100196.16;6442920;23;20012;-82
2022/01/09 15:37:41;;;;;;;19.47;6.23;;;;;;;4.55;81.24;100202.16;6443338;23;20001;-78
2022/01/09 15:40:14;;;;;;;19.20;5.47;;;;;;;4.53;82.13;100200.44;6444096;23;20086;-81
2022/01/09 15:42:45;;;;;;;25.00;6.72;;;;;;;4.40;82.54;100202.13;6444430;23;20419;-81
2022/01/09 15:45:19;;;;;;;18.33;6.50;;;;;;;4.31;83.00;100200.34;6445809;23;20032;-79
2022/01/09 15:47:51;;;;;;;28.30;8.60;;;;;;;4.25;83.23;100212.38;6444700;23;19997;-81
2022/01/09 15:50:22;;;;;;;28.30;8.90;;;;;;;4.21;83.63;100208.94;6443445;23;20007;-79
2022/01/09 15:52:54;;;;;;;22.80;8.13;;;;;;;4.15;83.87;100220.09;6442214;23;20423;-79
2022/01/09 15:55:29;;;;;;;24.73;7.77;;;;;;;4.12;84.38;100230.41;6443939;23;20056;-80
2022/01/09 15:58:04;;;;;;;23.25;7.57;;;;;;;4.03;84.28;100230.34;6444099;23;20004;-80
2022/01/09 16:00:35;;;;;;;20.60;7.85;;;;;;;3.98;84.69;100226.91;6444374;23;20017;-82
2022/01/09 16:03:09;;;;;;;20.85;7.63;;;;;;;3.97;85.20;100236.31;6445187;23;20068;-79
2022/01/09 16:05:41;;;;;;;23.40;6.38;;;;;;;3.94;85.67;100238.88;6447826;23;20060;-80
2022/01/09 16:08:12;;;;;;;19.90;6.00;;;;;;;3.84;85.94;100243.13;6443427;23;20554;-80
2022/01/09 16:10:44;;;;;;;23.77;5.43;;;;;;;3.84;85.90;100243.13;6444240;23;20001;-77
2022/01/09 16:13:16;;;;;;;17.13;4.50;;;;;;;3.73;85.83;100243.94;6438065;23;20506;-78
2022/01/09 16:15:48;;;;;;;14.32;3.65;;;;;;;3.79;86.37;100243.97;6414238;23;20013;-82
2022/01/09 16:18:20;;;;;;;15.47;4.07;;;;;;;3.65;85.98;100252.50;6441462;23;20437;-81
2022/01/09 16:20:51;;;;;;;25.80;5.50;;;;;;;3.61;86.39;100249.88;6442487;23;20001;-77